Nador, Morocco

11:30 PM WEST on September 03, 2015 (GMT +0100)
Arwi | | Change Station
CLOSE
Current Station
Airport
Location: Nador/Arwi,
Elevation: 574 ft
Nearby Weather Stations

Elev 574 ft 34.99 °N, 3.03 °W | Updated 30 minutes ago

Clear
Clear
66 °F
Feels Like 66 °F
N
2
Wind Variable Wind from Variable

Today
High -- | Low -- °F
--% Chance of Precip.
Yesterday
High -- | Low -- °F
Precip. -- in
6:45 AM 7:36 PM
Waning Gibbous, 66% visible
Pressure 29.98 in
Visibility -9999.0 miles
Clouds
Dew Point 59 °F
Humidity 78%
Rainfall 0.00 in
Snow Depth Not available.
UV Not available.
Pollen Not available.
Air Quality Not available.
Flu Activity Not available.
METAR GMMW 032200Z VRB02KT CAVOK 19/15 Q1015 NOSIG
Pressure 29.98 in
Visibility -9999.0 miles
Clouds
Dew Point 59 °F
Humidity 78%
Rainfall 0.00 in
Snow Depth Not available.
UV Not available.
Pollen Not available.
Air Quality Not available.
Flu Activity Not available.
METAR GMMW 032200Z VRB02KT CAVOK 19/15 Q1015 NOSIG

10-Day Weather Forecast

×

Almanac

Astronomy

Sep. 03, 2015 Rise Set
Actual Time
Civil Twilight
Nautical Twilight
Astronomical Twilight
Moon
Length of Visible Light
Length of Day
Tomorrow will be .
, % of the Moon is Illuminated

Today's Extremes

Country Highs Country Lows

Community

WunderPhotos

Upload Photos

1,852,049 photos uploaded!

WunderBlogs® & News

Nearby

Air Quality

  Air Quality AQ Index Pollutant
Not available.

Snow Depth

Station Depth Elevation

Earthquake Activity

City Distance Mag. Time & Date
Minimum magnitude displayed is 2.5.

Coastal Water Temperatures

Place Temperature

Stations

Nearby Weather Stations

Station Location Temp. Windchill Dew Point Humidity Wind Precip. Elev Updated Type